Time;durP1;ratioP1;P1;durP2;ratioP2;P2;SDS_P1;SDS_P2;PMS_P1;PMS_P2;Temp;Humidity;BMP_temperature;BMP_pressure;BME280_temperature;BME280_humidity;BME280_pressure;Samples;Min_cycle;Max_cycle;Signal;HPM_P1;HPM_P2
2024/04/14 00:01:43;;;;;;;5.30;3.27;;;;;;;19.05;68.28;100830.13;5341252;26;20286;-84
2024/04/14 00:04:14;;;;;;;5.53;3.07;;;;;;;19.06;68.42;100831.81;5323518;26;20236;-82
2024/04/14 00:06:39;;;;;;;4.17;3.10;;;;;;;19.05;68.65;100830.13;5344634;26;20263;-80
2024/04/14 00:09:08;;;;;;;4.60;2.93;;;;;;;19.05;68.87;100822.00;5333498;26;20240;-80
2024/04/14 00:11:33;;;;;;;4.40;3.10;;;;;;;19.03;69.45;100829.41;5345610;26;20789;-80
2024/04/14 00:14:02;;;;;;;5.40;3.20;;;;;;;19.00;69.42;100821.59;5341996;26;20299;-82
2024/04/14 00:16:27;;;;;;;5.23;3.17;;;;;;;18.96;69.71;100814.81;5327553;26;20241;-82
2024/04/14 00:18:56;;;;;;;4.47;2.87;;;;;;;18.93;70.49;100810.56;5344101;26;21172;-81
2024/04/14 00:21:24;;;;;;;3.97;2.90;;;;;;;18.89;70.79;100816.38;5338824;26;20256;-81
2024/04/14 00:23:53;;;;;;;5.10;3.43;;;;;;;18.85;71.50;100813.13;5333722;26;20238;-81
2024/04/14 00:26:18;;;;;;;6.23;3.37;;;;;;;18.82;72.08;100807.16;5330853;26;20240;-80
2024/04/14 00:28:48;;;;;;;6.83;3.47;;;;;;;18.80;72.28;100809.19;5332434;26;20282;-80
2024/04/14 00:31:14;;;;;;;4.17;3.40;;;;;;;18.76;72.79;100808.63;5338721;26;20238;-80
2024/04/14 00:33:42;;;;;;;4.87;3.90;;;;;;;18.73;73.11;100807.06;5328083;26;20267;-81
2024/04/14 00:36:08;;;;;;;4.07;3.67;;;;;;;18.74;73.28;100816.00;5334554;26;20243;-82
2024/04/14 00:38:39;;;;;;;4.00;3.33;;;;;;;18.71;73.56;100817.16;5329934;26;20637;-80
2024/04/14 00:41:05;;;;;;;5.20;4.20;;;;;;;18.69;73.85;100818.28;5331736;26;20737;-82
2024/04/14 00:43:33;;;;;;;5.00;4.00;;;;;;;18.66;74.23;100823.97;5334603;26;20274;-82
2024/04/14 00:45:59;;;;;;;4.90;4.13;;;;;;;18.62;74.20;100828.81;5343942;26;20795;-82
2024/04/14 00:48:27;;;;;;;5.33;4.27;;;;;;;18.60;74.77;100819.16;5342308;26;20254;-80
2024/04/14 00:50:53;;;;;;;4.23;3.77;;;;;;;18.58;74.46;100818.41;5342047;26;20236;-80
2024/04/14 00:53:22;;;;;;;4.63;4.13;;;;;;;18.54;75.42;100815.16;5343880;26;20248;-83
2024/04/14 00:55:51;;;;;;;4.90;4.17;;;;;;;18.51;75.44;100820.84;5330768;26;20312;-80
2024/04/14 00:58:21;;;;;;;5.37;4.23;;;;;;;18.47;75.38;100834.75;5332951;26;20389;-81
2024/04/14 01:00:47;;;;;;;9.73;5.00;;;;;;;18.45;75.26;100831.38;5344417;26;20242;-80
2024/04/14 01:03:15;;;;;;;7.77;4.90;;;;;;;18.40;74.42;100823.69;5342703;26;20240;-80
2024/04/14 01:05:41;;;;;;;6.00;4.27;;;;;;;18.33;72.61;100828.81;5344946;26;20240;-80
2024/04/14 01:08:09;;;;;;;5.43;4.30;;;;;;;18.28;71.99;100836.47;5344578;26;20285;-81
2024/04/14 01:10:35;;;;;;;6.83;4.33;;;;;;;18.23;71.66;100841.44;5344889;26;20282;-82
2024/04/14 01:13:06;;;;;;;5.43;4.20;;;;;;;18.18;71.37;100843.69;5343255;26;20236;-80
2024/04/14 01:15:32;;;;;;;4.50;3.80;;;;;;;18.14;70.33;100844.13;5333682;26;20297;-82
2024/04/14 01:18:00;;;;;;;6.40;4.10;;;;;;;18.09;69.47;100851.81;5344595;26;20244;-82
2024/04/14 01:20:27;;;;;;;4.70;3.00;;;;;;;18.03;67.20;100850.50;5326891;26;21697;-82
2024/04/14 01:22:55;;;;;;;3.70;2.40;;;;;;;17.95;64.06;100851.19;5339588;26;20279;-82
2024/04/14 01:25:25;;;;;;;3.33;2.47;;;;;;;17.88;62.63;100847.38;5342779;26;20238;-82
2024/04/14 01:27:53;;;;;;;4.63;2.63;;;;;;;17.83;61.89;100864.94;5335133;26;20951;-82
2024/04/14 01:30:19;;;;;;;3.80;2.17;;;;;;;17.77;61.75;100857.38;5340459;26;20240;-81
2024/04/14 01:32:47;;;;;;;4.40;2.40;;;;;;;17.75;62.19;100862.91;5324012;26;20243;-82
2024/04/14 01:35:13;;;;;;;3.83;2.77;;;;;;;17.70;62.04;100859.81;5339725;26;21028;-82
2024/04/14 01:37:41;;;;;;;3.43;2.40;;;;;;;17.64;63.18;100863.91;5339323;26;20246;-80
2024/04/14 01:40:08;;;;;;;2.60;2.40;;;;;;;17.59;63.61;100863.41;5334953;26;20741;-82
2024/04/14 01:42:39;;;;;;;3.17;2.30;;;;;;;17.57;64.64;100875.31;5321688;26;20720;-80
2024/04/14 01:45:09;;;;;;;3.70;2.63;;;;;;;17.52;64.47;100878.44;5326559;26;20239;-81
2024/04/14 01:47:38;;;;;;;4.70;2.73;;;;;;;17.46;65.19;100881.66;5334096;26;20237;-80
2024/04/14 01:50:04;;;;;;;2.87;2.57;;;;;;;17.39;64.88;100882.31;5341711;26;20244;-80
2024/04/14 01:52:32;;;;;;;6.20;2.53;;;;;;;17.33;65.28;100886.44;5343605;26;20241;-79
2024/04/14 01:54:58;;;;;;;3.13;2.37;;;;;;;17.25;64.76;100892.47;5339012;26;20949;-81
2024/04/14 01:57:26;;;;;;;4.50;2.50;;;;;;;17.20;65.20;100892.00;5331528;26;20236;-81
2024/04/14 01:59:54;;;;;;;3.97;2.10;;;;;;;17.16;65.05;100897.81;5341130;26;20238;-80
2024/04/14 02:02:23;;;;;;;3.57;2.73;;;;;;;17.09;65.11;100889.41;5333295;26;20276;-82
2024/04/14 02:04:48;;;;;;;3.37;2.37;;;;;;;17.06;64.99;100894.19;5334504;26;20799;-80
2024/04/14 02:07:17;;;;;;;4.73;2.50;;;;;;;16.98;65.37;100900.25;5333532;26;20290;-81
2024/04/14 02:09:42;;;;;;;3.17;2.33;;;;;;;16.93;66.12;100889.03;5336189;26;20240;-81
2024/04/14 02:12:11;;;;;;;3.50;2.20;;;;;;;16.86;66.02;100902.16;5336009;26;20586;-80
2024/04/14 02:14:36;;;;;;;3.53;2.40;;;;;;;16.80;66.73;100907.22;5343252;26;20240;-80
2024/04/14 02:17:07;;;;;;;3.93;2.40;;;;;;;16.76;67.41;100903.06;5341991;26;20293;-81
2024/04/14 02:19:33;;;;;;;3.53;1.90;;;;;;;16.73;67.81;100897.94;5339526;26;20282;-82
2024/04/14 02:22:02;;;;;;;3.20;2.00;;;;;;;16.66;67.34;100906.53;5336103;26;20241;-81
2024/04/14 02:24:32;;;;;;;3.70;2.07;;;;;;;16.59;67.43;100907.16;5335368;26;20239;-81
2024/04/14 02:27:00;;;;;;;5.20;2.07;;;;;;;16.55;66.62;100916.47;5340022;26;20256;-81
2024/04/14 02:29:26;;;;;;;2.93;2.00;;;;;;;16.49;66.96;100914.28;5336578;26;20235;-81
2024/04/14 02:31:54;;;;;;;4.40;1.97;;;;;;;16.41;66.71;100931.06;5328926;26;20826;-81
2024/04/14 02:34:22;;;;;;;5.20;1.97;;;;;;;16.32;67.01;100938.03;5329578;26;20226;-84
2024/04/14 02:36:51;;;;;;;4.13;1.90;;;;;;;16.29;67.03;100932.94;5330543;26;20243;-82
2024/04/14 02:39:16;;;;;;;4.67;1.90;;;;;;;16.24;66.31;100921.72;5328938;26;20244;-82
2024/04/14 02:41:45;;;;;;;3.27;1.67;;;;;;;16.18;66.92;100929.41;5337042;26;20279;-80
2024/04/14 02:44:12;;;;;;;2.67;1.90;;;;;;;16.14;67.09;100925.28;5336066;26;20233;-80
2024/04/14 02:46:40;;;;;;;3.03;1.70;;;;;;;16.10;67.52;100938.13;5334281;26;20233;-82
2024/04/14 02:49:06;;;;;;;3.90;2.10;;;;;;;16.08;67.79;100934.72;5342422;26;20284;-84
2024/04/14 02:51:37;;;;;;;5.20;1.87;;;;;;;16.07;68.03;100950.94;5341671;26;20236;-82
2024/04/14 02:54:03;;;;;;;2.23;1.37;;;;;;;16.04;67.82;100953.88;5340293;26;20294;-82
2024/04/14 02:56:31;;;;;;;2.43;1.53;;;;;;;16.01;68.17;100951.44;5331257;26;20840;-82
2024/04/14 02:58:57;;;;;;;3.40;1.77;;;;;;;15.98;68.21;100957.91;5328470;26;20773;-82
2024/04/14 03:01:25;;;;;;;3.73;2.00;;;;;;;15.93;68.57;100957.44;5342494;26;20279;-83
2024/04/14 03:03:51;;;;;;;3.87;1.60;;;;;;;15.91;68.73;100949.50;5334849;26;20282;-82
2024/04/14 03:06:19;;;;;;;3.87;2.00;;;;;;;15.86;69.02;100953.53;5342177;26;20238;-82
2024/04/14 03:08:48;;;;;;;3.60;1.83;;;;;;;15.85;69.07;100960.75;5328132;26;20233;-83
2024/04/14 03:11:16;;;;;;;3.83;1.80;;;;;;;15.80;69.42;100960.25;5341809;26;20302;-81
2024/04/14 03:13:42;;;;;;;4.03;1.77;;;;;;;15.76;69.53;100963.31;5341730;26;20301;-83
2024/04/14 03:16:10;;;;;;;4.50;2.13;;;;;;;15.73;69.84;100961.72;5334924;26;20239;-82
2024/04/14 03:18:36;;;;;;;5.33;1.43;;;;;;;15.71;69.47;100958.31;5333206;26;20238;-84
2024/04/14 03:21:05;;;;;;;1.87;1.40;;;;;;;15.67;69.84;100959.53;5325818;26;20748;-83
2024/04/14 03:23:31;;;;;;;3.27;1.90;;;;;;;15.65;70.00;100961.47;5336614;26;20242;-82
2024/04/14 03:26:02;;;;;;;4.93;1.87;;;;;;;15.65;70.10;100969.53;5340699;26;20231;-82
2024/04/14 03:28:28;;;;;;;3.33;1.77;;;;;;;15.62;70.25;100970.63;5334178;26;20241;-82
2024/04/14 03:31:01;;;;;;;3.60;1.73;;;;;;;15.64;70.46;100975.88;5334954;26;20238;-82
2024/04/14 03:33:27;;;;;;;1.90;1.53;;;;;;;15.61;70.57;100982.34;5323102;26;20277;-82
2024/04/14 03:36:01;;;;;;;4.07;1.80;;;;;;;15.60;70.56;100977.09;5337027;26;20237;-82
2024/04/14 03:38:30;;;;;;;5.03;2.77;;;;;;;15.58;70.42;100968.34;5335789;26;20700;-82
2024/04/14 03:40:59;;;;;;;4.57;1.97;;;;;;;15.56;70.34;100979.19;5329384;26;20798;-80
2024/04/14 03:43:30;;;;;;;2.50;2.00;;;;;;;15.56;70.21;100983.69;5331986;26;20277;-80
2024/04/14 03:45:58;;;;;;;3.77;2.07;;;;;;;15.53;70.25;100976.69;5337719;26;20322;-80
2024/04/14 03:48:26;;;;;;;3.47;2.03;;;;;;;15.55;70.54;100987.31;5335482;26;20303;-79
2024/04/14 03:50:52;;;;;;;4.03;2.00;;;;;;;15.52;71.08;100987.56;5333266;26;20277;-81
2024/04/14 03:53:20;;;;;;;4.20;1.83;;;;;;;15.54;70.44;100986.47;5341766;26;20628;-80
2024/04/14 03:55:48;;;;;;;4.57;1.70;;;;;;;15.53;70.67;100994.63;5332147;26;20582;-80
2024/04/14 03:58:16;;;;;;;3.57;1.73;;;;;;;15.52;70.90;100991.09;5341293;26;20733;-81
2024/04/14 04:00:45;;;;;;;4.13;2.47;;;;;;;15.50;71.38;100992.19;5339990;26;20620;-79
2024/04/14 04:03:13;;;;;;;2.70;1.60;;;;;;;15.50;71.48;100995.72;5322645;26;20227;-80
2024/04/14 04:05:39;;;;;;;3.13;1.60;;;;;;;15.47;71.21;100987.06;5332694;26;20240;-81
2024/04/14 04:08:08;;;;;;;4.50;2.00;;;;;;;15.43;71.25;100983.75;5334685;26;20288;-80
2024/04/14 04:10:33;;;;;;;5.03;1.90;;;;;;;15.43;71.61;100982.91;5330649;26;20234;-81
2024/04/14 04:13:01;;;;;;;4.53;2.00;;;;;;;15.39;71.87;100990.34;5341489;26;20340;-83
2024/04/14 04:15:27;;;;;;;2.60;1.80;;;;;;;15.40;71.87;100991.22;5338799;26;20233;-82
2024/04/14 04:17:58;;;;;;;4.97;1.90;;;;;;;15.40;71.91;100996.59;5338920;26;20622;-81
2024/04/14 04:20:24;;;;;;;3.97;2.00;;;;;;;15.39;72.08;100994.88;5339557;26;20234;-83
2024/04/14 04:22:52;;;;;;;3.37;2.00;;;;;;;15.36;72.60;100995.97;5341851;26;20721;-81
2024/04/14 04:25:18;;;;;;;4.63;2.10;;;;;;;15.36;73.08;100989.75;5333746;26;20238;-82
2024/04/14 04:27:46;;;;;;;3.13;1.87;;;;;;;15.35;73.27;100998.75;5344161;26;20289;-82
2024/04/14 04:30:12;;;;;;;4.10;2.00;;;;;;;15.33;73.54;101000.72;5336389;26;20280;-82
2024/04/14 04:32:40;;;;;;;4.03;2.10;;;;;;;15.31;73.88;100999.97;5341777;26;20733;-82
2024/04/14 04:35:09;;;;;;;4.10;2.23;;;;;;;15.27;73.89;100999.34;5341795;26;20680;-83
2024/04/14 04:37:37;;;;;;;4.33;2.10;;;;;;;15.25;74.14;100999.47;5339557;26;20241;-83
2024/04/14 04:40:03;;;;;;;5.73;2.43;;;;;;;15.24;73.88;101003.13;5335447;26;20235;-83
2024/04/14 04:42:32;;;;;;;3.27;2.17;;;;;;;15.22;73.96;101005.09;5339158;26;20726;-81
2024/04/14 04:44:57;;;;;;;4.40;2.20;;;;;;;15.21;74.02;101010.56;5344643;26;20290;-81
2024/04/14 04:47:26;;;;;;;5.23;2.67;;;;;;;15.19;74.61;101023.25;5340337;26;20288;-81
2024/04/14 04:49:51;;;;;;;4.67;2.57;;;;;;;15.17;74.45;101012.63;5344836;26;20271;-82
2024/04/14 04:52:22;;;;;;;3.07;2.17;;;;;;;15.16;74.60;101016.28;5335588;26;20692;-83
2024/04/14 04:54:48;;;;;;;8.57;2.83;;;;;;;15.16;75.07;101031.53;5339552;26;20271;-83
2024/04/14 04:57:16;;;;;;;5.63;2.90;;;;;;;15.12;74.77;101025.53;5340046;26;20240;-83
2024/04/14 04:59:42;;;;;;;5.63;2.70;;;;;;;15.12;75.04;101035.41;5344215;26;20959;-83
2024/04/14 05:02:10;;;;;;;6.50;2.90;;;;;;;15.12;75.43;101041.63;5344674;26;20284;-81
2024/04/14 05:04:36;;;;;;;5.33;2.70;;;;;;;15.13;75.33;101042.47;5338393;26;20271;-83
2024/04/14 05:07:05;;;;;;;5.97;3.40;;;;;;;15.07;75.91;101049.16;5337211;26;20242;-81
2024/04/14 05:09:34;;;;;;;8.07;3.40;;;;;;;15.04;76.27;101049.41;5344332;26;20733;-82
2024/04/14 05:12:02;;;;;;;4.80;2.87;;;;;;;15.03;76.61;101052.22;5335979;26;20234;-81
2024/04/14 05:14:28;;;;;;;6.77;3.20;;;;;;;15.01;77.31;101064.88;5331336;26;20264;-83
2024/04/14 05:16:56;;;;;;;6.63;3.03;;;;;;;14.97;77.87;101060.72;5332744;26;20241;-83
2024/04/14 05:19:22;;;;;;;4.37;2.50;;;;;;;14.95;78.11;101066.19;5343684;26;20303;-81
2024/04/14 05:21:50;;;;;;;4.90;2.40;;;;;;;14.91;77.26;101067.38;5342900;26;20729;-82
2024/04/14 05:24:16;;;;;;;3.67;1.67;;;;;;;14.88;76.08;101067.59;5340234;26;20238;-81
2024/04/14 05:26:47;;;;;;;4.50;1.57;;;;;;;14.78;72.72;101069.28;5340196;26;21025;-81
2024/04/14 05:29:12;;;;;;;3.30;1.27;;;;;;;14.71;71.64;101073.38;5339329;26;20245;-83
2024/04/14 05:31:41;;;;;;;8.40;1.80;;;;;;;14.64;71.92;101080.16;5338576;26;20241;-81
2024/04/14 05:34:06;;;;;;;4.63;1.50;;;;;;;14.59;71.63;101070.63;5337953;26;20233;-82
2024/04/14 05:36:35;;;;;;;4.50;1.60;;;;;;;14.56;72.05;101083.38;5332589;26;20333;-83
2024/04/14 05:39:00;;;;;;;5.20;1.40;;;;;;;14.56;72.43;101083.38;5341256;26;20233;-83
2024/04/14 05:41:30;;;;;;;2.87;1.50;;;;;;;14.59;73.07;101086.72;5340171;26;20284;-83
2024/04/14 05:43:58;;;;;;;3.90;1.50;;;;;;;14.65;72.98;101089.91;5343264;26;20233;-82
2024/04/14 05:46:26;;;;;;;3.10;1.30;;;;;;;14.72;73.43;101083.13;5339248;26;20312;-83
2024/04/14 05:48:52;;;;;;;3.03;1.40;;;;;;;14.78;73.33;101096.09;5345269;26;20241;-83
2024/04/14 05:51:20;;;;;;;2.87;1.40;;;;;;;14.81;73.02;101107.44;5344725;26;20238;-81
2024/04/14 05:53:46;;;;;;;2.77;1.10;;;;;;;14.85;73.06;101106.25;5342810;26;20230;-81
2024/04/14 05:56:14;;;;;;;2.47;1.20;;;;;;;14.89;72.28;101113.09;5343959;26;20284;-83
2024/04/14 05:58:40;;;;;;;3.73;1.33;;;;;;;14.90;71.10;101116.63;5344072;26;20287;-81
2024/04/14 06:01:12;;;;;;;5.70;1.93;;;;;;;14.91;71.22;101124.56;5346838;26;20241;-83
2024/04/14 06:03:37;;;;;;;3.23;0.93;;;;;;;14.91;70.53;101118.34;5343335;26;20233;-80
2024/04/14 06:06:06;;;;;;;5.47;1.20;;;;;;;14.92;69.98;101126.28;5337499;26;20233;-83
2024/04/14 06:08:32;;;;;;;4.20;1.30;;;;;;;14.96;70.13;101136.78;5343269;26;20249;-82
2024/04/14 06:11:00;;;;;;;2.63;1.00;;;;;;;15.03;70.53;101138.06;5338818;26;20304;-81
2024/04/14 06:13:26;;;;;;;3.33;1.13;;;;;;;15.08;69.53;101146.59;5342517;26;20233;-83
2024/04/14 06:15:54;;;;;;;3.83;0.97;;;;;;;15.11;69.01;101144.53;5334143;26;20271;-82
2024/04/14 06:18:22;;;;;;;3.07;1.17;;;;;;;15.15;68.66;101146.03;5340264;26;20284;-81
2024/04/14 06:20:51;;;;;;;2.93;1.20;;;;;;;15.20;68.64;101151.91;5342104;26;20237;-81
2024/04/14 06:23:16;;;;;;;3.17;1.23;;;;;;;15.24;68.50;101144.47;5339355;26;20240;-81
2024/04/14 06:25:45;;;;;;;4.13;1.13;;;;;;;15.31;68.28;101158.28;5340389;26;20283;-80
2024/04/14 06:28:11;;;;;;;4.73;1.13;;;;;;;15.41;68.07;101148.56;5334728;26;20852;-81
2024/04/14 06:30:40;;;;;;;2.73;0.90;;;;;;;15.49;66.95;101141.66;5333190;26;20238;-81
2024/04/14 06:33:06;;;;;;;1.37;0.80;;;;;;;15.54;65.96;101150.22;5341397;26;20235;-80
2024/04/14 06:35:37;;;;;;;2.30;1.07;;;;;;;15.50;65.01;101155.94;5338082;26;20289;-81
2024/04/14 06:38:04;;;;;;;2.13;1.10;;;;;;;15.49;65.77;101151.53;5336327;26;20777;-82
2024/04/14 06:40:32;;;;;;;3.60;1.50;;;;;;;15.45;64.26;101156.28;5347376;26;20265;-81
2024/04/14 06:42:57;;;;;;;4.20;1.10;;;;;;;15.41;64.34;101159.31;5344866;26;20283;-82
2024/04/14 06:45:26;;;;;;;2.27;0.93;;;;;;;15.40;63.70;101165.66;5337075;26;20245;-82
2024/04/14 06:47:51;;;;;;;5.83;1.17;;;;;;;15.39;63.44;101169.31;5346034;26;20313;-82
2024/04/14 06:50:20;;;;;;;3.23;1.10;;;;;;;15.36;62.82;101173.09;5337945;26;20691;-81
2024/04/14 06:52:48;;;;;;;7.03;1.20;;;;;;;15.38;63.37;101171.16;5342568;26;20232;-82
2024/04/14 06:55:18;;;;;;;3.50;0.97;;;;;;;15.44;63.14;101175.19;5337430;26;20699;-82
2024/04/14 06:57:44;;;;;;;3.80;0.87;;;;;;;15.47;62.55;101175.81;5345017;26;20326;-83
2024/04/14 07:00:13;;;;;;;3.10;0.97;;;;;;;15.56;63.43;101179.69;5343745;26;20724;-83
2024/04/14 07:02:39;;;;;;;2.37;0.93;;;;;;;15.65;63.28;101178.97;5339805;26;20275;-80
2024/04/14 07:05:08;;;;;;;3.97;1.43;;;;;;;15.76;63.34;101180.84;5343585;26;20345;-81
2024/04/14 07:07:33;;;;;;;2.67;0.80;;;;;;;15.86;63.39;101182.69;5345923;26;20238;-81
2024/04/14 07:10:05;;;;;;;4.87;1.10;;;;;;;15.95;61.83;101178.44;5344693;26;20316;-82
2024/04/14 07:12:30;;;;;;;3.17;1.00;;;;;;;16.00;62.59;101178.94;5335149;26;20273;-82
2024/04/14 07:14:59;;;;;;;4.43;1.03;;;;;;;16.07;61.28;101172.13;5344343;26;20235;-82
2024/04/14 07:17:24;;;;;;;1.60;0.80;;;;;;;16.07;59.38;101168.59;5344663;26;20250;-82
2024/04/14 07:19:53;;;;;;;2.87;1.23;;;;;;;16.08;58.93;101181.03;5342348;26;20239;-83
2024/04/14 07:22:18;;;;;;;4.43;0.70;;;;;;;16.10;57.84;101189.84;5340834;26;20239;-83
2024/04/14 07:24:49;;;;;;;3.53;1.00;;;;;;;16.15;57.78;101191.19;5342081;26;20271;-83
2024/04/14 07:27:17;;;;;;;2.93;0.93;;;;;;;16.22;57.74;101183.50;5340061;26;20240;-82
2024/04/14 07:29:45;;;;;;;3.33;0.67;;;;;;;16.26;57.16;101179.59;5330861;26;20577;-83
2024/04/14 07:32:11;;;;;;;2.97;0.90;;;;;;;16.25;54.81;101180.56;5338789;26;20280;-82
2024/04/14 07:34:39;;;;;;;2.73;0.73;;;;;;;16.20;54.61;101180.06;5344207;26;20285;-83
2024/04/14 07:37:05;;;;;;;2.33;0.70;;;;;;;16.18;55.26;101193.63;5339249;26;20302;-84
2024/04/14 07:39:33;;;;;;;2.93;0.80;;;;;;;16.23;55.37;101198.66;5341746;26;20240;-81
2024/04/14 07:42:02;;;;;;;3.97;0.83;;;;;;;16.26;54.62;101185.84;5340670;26;20239;-83
2024/04/14 07:44:32;;;;;;;4.03;1.00;;;;;;;16.32;54.59;101184.47;5327662;26;20746;-81
2024/04/14 07:46:58;;;;;;;2.80;0.87;;;;;;;16.33;55.34;101191.56;5337834;26;20240;-82
2024/04/14 07:49:27;;;;;;;4.73;0.77;;;;;;;16.36;54.10;101196.69;5345171;26;20267;-82
2024/04/14 07:51:52;;;;;;;3.90;0.90;;;;;;;16.39;53.82;101199.16;5345594;26;20244;-82
2024/04/14 07:54:20;;;;;;;3.87;0.80;;;;;;;16.42;53.83;101201.59;5347516;26;20827;-81
2024/04/14 07:56:46;;;;;;;1.67;0.60;;;;;;;16.46;53.65;101202.22;5332970;26;20286;-81
2024/04/14 07:59:14;;;;;;;4.27;1.43;;;;;;;16.52;55.07;101199.88;5345338;26;20247;-81
2024/04/14 08:01:43;;;;;;;2.17;0.70;;;;;;;16.61;54.20;101207.25;5347129;26;20571;-82
2024/04/14 08:04:11;;;;;;;2.73;0.70;;;;;;;16.64;53.18;101212.41;5345089;26;20241;-82
2024/04/14 08:06:37;;;;;;;3.97;1.07;;;;;;;16.64;53.29;101219.63;5345825;26;20303;-82
2024/04/14 08:09:05;;;;;;;5.20;1.00;;;;;;;16.60;52.63;101210.91;5344955;26;20238;-82
2024/04/14 08:11:31;;;;;;;2.97;0.90;;;;;;;16.63;53.18;101213.38;5339202;26;20239;-81
2024/04/14 08:14:00;;;;;;;3.67;0.70;;;;;;;16.67;54.03;101220.22;5344105;26;20301;-82
2024/04/14 08:16:25;;;;;;;2.20;0.80;;;;;;;16.76;52.90;101221.31;5345473;26;20320;-82
2024/04/14 08:18:56;;;;;;;4.30;0.80;;;;;;;16.84;53.49;101226.09;5346057;26;21099;-81
2024/04/14 08:21:22;;;;;;;2.33;0.90;;;;;;;16.92;52.91;101229.00;5337599;26;20599;-81
2024/04/14 08:23:52;;;;;;;3.17;0.80;;;;;;;16.99;52.18;101222.16;5340831;26;20226;-81
2024/04/14 08:26:18;;;;;;;4.40;0.83;;;;;;;16.98;51.93;101221.31;5328997;26;20284;-80
2024/04/14 08:28:46;;;;;;;1.83;0.77;;;;;;;17.00;52.24;101231.94;5327768;26;20238;-80
2024/04/14 08:31:12;;;;;;;2.80;0.60;;;;;;;17.03;51.57;101226.28;5335071;26;20376;-80
2024/04/14 08:33:40;;;;;;;4.07;1.27;;;;;;;17.05;52.48;101231.56;5345911;26;20280;-81
2024/04/14 08:36:09;;;;;;;1.93;0.90;;;;;;;17.04;51.37;101238.78;5344993;26;20276;-81
2024/04/14 08:38:39;;;;;;;2.67;0.90;;;;;;;17.02;51.86;101244.28;5333881;26;20229;-82
2024/04/14 08:41:04;;;;;;;2.80;0.77;;;;;;;16.98;51.60;101255.44;5331953;26;20245;-82
2024/04/14 08:43:33;;;;;;;2.87;0.70;;;;;;;16.96;52.05;101250.19;5334885;26;20323;-80
2024/04/14 08:46:00;;;;;;;1.67;0.67;;;;;;;16.94;51.00;101248.59;5334961;26;20443;-80
2024/04/14 08:48:31;;;;;;;2.43;0.80;;;;;;;16.87;50.84;101261.66;5340291;26;20277;-80
2024/04/14 08:50:58;;;;;;;2.57;1.00;;;;;;;16.83;50.17;101248.59;5337568;26;20284;-80
2024/04/14 08:53:31;;;;;;;4.13;0.93;;;;;;;16.83;51.08;101256.66;5342379;26;20241;-80
2024/04/14 08:55:57;;;;;;;3.60;1.00;;;;;;;16.86;50.38;101267.16;5334435;26;20268;-81
2024/04/14 08:58:27;;;;;;;3.00;0.87;;;;;;;16.87;49.56;101258.97;5345641;26;20711;-81
2024/04/14 09:01:00;;;;;;;2.37;0.50;;;;;;;16.92;49.30;101258.59;5345377;26;20238;-81
2024/04/14 09:03:28;;;;;;;2.33;0.67;;;;;;;16.92;48.32;101261.28;5329237;26;20239;-82
2024/04/14 09:05:58;;;;;;;1.27;0.63;;;;;;;16.86;47.64;101269.84;5341524;26;20238;-81
2024/04/14 09:08:28;;;;;;;3.97;0.90;;;;;;;16.78;48.00;101264.25;5332025;26;20249;-81
2024/04/14 09:10:54;;;;;;;2.93;0.77;;;;;;;16.73;47.67;101279.88;5345765;26;20245;-82
2024/04/14 09:13:25;;;;;;;2.50;0.80;;;;;;;16.68;47.68;101277.53;5341612;26;20280;-82
2024/04/14 09:15:51;;;;;;;2.30;1.23;;;;;;;16.70;47.60;101272.91;5328554;26;20240;-83
2024/04/14 09:18:19;;;;;;;4.13;0.70;;;;;;;16.75;47.43;101268.03;5341020;26;20299;-83
2024/04/14 09:20:45;;;;;;;2.70;0.63;;;;;;;16.76;46.50;101264.34;5335035;26;20233;-81
2024/04/14 09:23:13;;;;;;;3.57;0.97;;;;;;;16.82;47.91;101271.09;5347028;26;20281;-82
2024/04/14 09:25:43;;;;;;;2.50;0.60;;;;;;;16.87;47.06;101261.66;5340746;26;20742;-83
2024/04/14 09:28:12;;;;;;;1.73;0.63;;;;;;;16.92;46.40;101267.53;5338143;26;20315;-82
2024/04/14 09:30:38;;;;;;;3.07;0.60;;;;;;;16.94;46.77;101268.28;5342558;26;20819;-83
2024/04/14 09:33:07;;;;;;;2.70;0.70;;;;;;;16.94;46.64;101273.66;5333512;26;20236;-83
2024/04/14 09:35:33;;;;;;;3.70;0.73;;;;;;;16.88;46.15;101279.50;5342912;26;20281;-82
2024/04/14 09:38:02;;;;;;;3.77;0.70;;;;;;;16.83;45.93;101297.03;5346200;26;20247;-80
2024/04/14 09:40:29;;;;;;;4.20;0.93;;;;;;;16.79;47.04;101274.03;5348158;26;20239;-81
2024/04/14 09:43:00;;;;;;;5.03;0.70;;;;;;;16.84;47.35;101287.97;5340217;26;20344;-83
2024/04/14 09:45:27;;;;;;;3.00;1.10;;;;;;;16.83;46.42;101279.03;5342308;26;20238;-79
2024/04/14 09:47:56;;;;;;;2.77;1.17;;;;;;;16.87;47.53;101285.00;5340080;26;20253;-80
2024/04/14 09:50:23;;;;;;;2.53;0.57;;;;;;;16.87;47.17;101287.72;5344131;26;20236;-81
2024/04/14 09:52:52;;;;;;;2.00;0.50;;;;;;;16.90;47.44;101279.41;5344868;26;20288;-84
2024/04/14 09:55:18;;;;;;;2.57;0.47;;;;;;;16.94;46.42;101294.31;5346290;26;20330;-81
2024/04/14 09:57:47;;;;;;;2.93;0.73;;;;;;;16.99;47.32;101282.22;5345826;26;20288;-81
2024/04/14 10:00:16;;;;;;;3.07;0.70;;;;;;;17.08;47.07;101290.53;5338000;26;20320;-81
2024/04/14 10:02:51;;;;;;;1.77;0.70;;;;;;;17.15;47.05;101289.91;5338689;26;20773;-82
2024/04/14 10:05:18;;;;;;;2.87;0.87;;;;;;;17.15;45.62;101284.53;5335650;26;20347;-81
2024/04/14 10:07:47;;;;;;;3.77;0.70;;;;;;;17.16;46.10;101274.63;5346780;26;20251;-84
2024/04/14 10:10:12;;;;;;;1.80;0.50;;;;;;;17.16;45.92;101282.69;5345124;26;20243;-82
2024/04/14 10:12:41;;;;;;;2.27;0.50;;;;;;;17.17;45.10;101274.50;5341583;26;20332;-83
2024/04/14 10:15:08;;;;;;;3.63;0.83;;;;;;;17.18;45.67;101268.13;5334106;26;20287;-81
2024/04/14 10:17:39;;;;;;;3.23;0.73;;;;;;;17.21;45.11;101275.09;5343691;26;20250;-81
2024/04/14 10:20:11;;;;;;;3.27;0.97;;;;;;;17.25;45.27;101274.72;5341951;26;20235;-83
2024/04/14 10:22:41;;;;;;;2.70;0.53;;;;;;;17.30;45.26;101274.34;5327723;26;20235;-81
2024/04/14 10:25:17;;;;;;;1.93;0.70;;;;;;;17.35;45.33;101280.22;5333262;26;20833;-82
2024/04/14 10:27:45;;;;;;;3.50;1.00;;;;;;;17.39;45.49;101283.50;5333902;26;20247;-81
2024/04/14 10:30:19;;;;;;;3.83;0.60;;;;;;;17.41;44.45;101281.53;5332336;26;20299;-81
2024/04/14 10:32:49;;;;;;;4.13;0.60;;;;;;;17.47;45.33;101281.91;5335614;26;20242;-83
2024/04/14 10:35:16;;;;;;;2.50;0.67;;;;;;;17.52;44.99;101285.09;5342481;26;20288;-79
2024/04/14 10:37:55;;;;;;;1.67;0.70;;;;;;;17.51;44.21;101279.81;5336967;26;20236;-81
2024/04/14 10:40:21;;;;;;;2.87;0.60;;;;;;;17.43;39.75;101284.97;5343962;26;20273;-83
2024/04/14 10:42:49;;;;;;;4.07;0.70;;;;;;;17.34;40.37;101284.75;5345724;26;20597;-80
2024/04/14 10:45:24;;;;;;;2.03;0.60;;;;;;;17.28;40.22;101287.94;5334611;26;20235;-83
2024/04/14 10:47:57;;;;;;;2.73;0.53;;;;;;;17.27;41.18;101286.22;5335943;26;20285;-83
2024/04/14 10:50:24;;;;;;;1.77;0.70;;;;;;;17.30;40.85;101277.91;5344971;26;20298;-80
2024/04/14 10:52:52;;;;;;;1.53;0.53;;;;;;;17.29;40.76;101281.56;5338501;26;20236;-83
2024/04/14 10:55:19;;;;;;;2.37;0.40;;;;;;;17.20;41.61;101278.75;5339350;26;20264;-83
2024/04/14 10:57:47;;;;;;;1.43;0.40;;;;;;;17.14;41.44;101269.34;5335448;26;20241;-79
2024/04/14 11:00:13;;;;;;;1.73;0.50;;;;;;;17.09;42.33;101274.25;5333640;26;20230;-83
2024/04/14 11:02:41;;;;;;;3.50;0.60;;;;;;;17.02;41.76;101278.41;5338671;26;20280;-80
2024/04/14 11:05:11;;;;;;;1.83;0.50;;;;;;;16.97;42.22;101286.00;5345503;26;20296;-82
2024/04/14 11:07:41;;;;;;;2.77;0.40;;;;;;;16.93;40.94;101279.16;5342999;26;20294;-81
2024/04/14 11:10:08;;;;;;;3.10;0.50;;;;;;;16.90;40.58;101271.31;5353349;26;20325;-83
2024/04/14 11:12:37;;;;;;;2.27;0.50;;;;;;;16.94;41.48;101268.28;5356131;26;20233;-81
2024/04/14 11:15:06;;;;;;;4.07;0.70;;;;;;;17.04;42.19;101267.50;5352669;26;20235;-83
2024/04/14 11:17:35;;;;;;;2.07;0.63;;;;;;;17.11;41.21;101266.06;5339039;26;20338;-80
2024/04/14 11:20:00;;;;;;;1.33;0.47;;;;;;;17.18;41.66;101262.75;5327776;26;20680;-81
2024/04/14 11:22:33;;;;;;;2.43;0.60;;;;;;;17.24;41.49;101262.22;5337251;26;20230;-80
2024/04/14 11:24:59;;;;;;;3.20;0.87;;;;;;;17.30;42.47;101259.06;5353747;26;20233;-81
2024/04/14 11:27:27;;;;;;;2.30;0.60;;;;;;;17.38;42.10;101274.56;5345596;26;20778;-80